sensor_id;sensor_type;location;lat;lon;timestamp;P1;durP1;ratioP1;P2;durP2;ratioP2
22780;SDS011;11557;50.884;4.322;2022-11-20T00:01:24;55.20;;;33.40;;
22780;SDS011;11557;50.884;4.322;2022-11-20T00:03:51;54.43;;;33.67;;
22780;SDS011;11557;50.884;4.322;2022-11-20T00:06:19;57.92;;;34.88;;
22780;SDS011;11557;50.884;4.322;2022-11-20T00:08:45;56.30;;;35.00;;
22780;SDS011;11557;50.884;4.322;2022-11-20T00:11:12;56.05;;;35.63;;
22780;SDS011;11557;50.884;4.322;2022-11-20T00:13:42;52.42;;;34.20;;
22780;SDS011;11557;50.884;4.322;2022-11-20T00:16:09;57.60;;;35.42;;
22780;SDS011;11557;50.884;4.322;2022-11-20T00:18:36;61.33;;;35.88;;
22780;SDS011;11557;50.884;4.322;2022-11-20T00:21:05;54.53;;;33.88;;
22780;SDS011;11557;50.884;4.322;2022-11-20T00:23:32;54.72;;;35.75;;
22780;SDS011;11557;50.884;4.322;2022-11-20T00:26:04;58.30;;;37.10;;
22780;SDS011;11557;50.884;4.322;2022-11-20T00:28:31;57.17;;;34.75;;
22780;SDS011;11557;50.884;4.322;2022-11-20T00:31:15;57.40;;;35.47;;
22780;SDS011;11557;50.884;4.322;2022-11-20T00:33:42;51.92;;;34.83;;
22780;SDS011;11557;50.884;4.322;2022-11-20T00:36:09;58.20;;;35.08;;
22780;SDS011;11557;50.884;4.322;2022-11-20T00:38:42;52.70;;;35.75;;
22780;SDS011;11557;50.884;4.322;2022-11-20T00:41:09;53.28;;;34.15;;
22780;SDS011;11557;50.884;4.322;2022-11-20T00:43:36;51.03;;;34.38;;
22780;SDS011;11557;50.884;4.322;2022-11-20T00:46:09;54.83;;;36.85;;
22780;SDS011;11557;50.884;4.322;2022-11-20T00:48:38;56.38;;;35.92;;
22780;SDS011;11557;50.884;4.322;2022-11-20T00:51:03;48.25;;;34.28;;
22780;SDS011;11557;50.884;4.322;2022-11-20T00:53:29;49.83;;;33.70;;
22780;SDS011;11557;50.884;4.322;2022-11-20T00:55:56;48.50;;;33.28;;
22780;SDS011;11557;50.884;4.322;2022-11-20T00:58:24;61.60;;;33.78;;
22780;SDS011;11557;50.884;4.322;2022-11-20T01:00:50;49.40;;;32.83;;
22780;SDS011;11557;50.884;4.322;2022-11-20T01:03:16;47.60;;;31.95;;
22780;SDS011;11557;50.884;4.322;2022-11-20T01:05:42;51.20;;;32.83;;
22780;SDS011;11557;50.884;4.322;2022-11-20T01:08:08;56.42;;;36.30;;
22780;SDS011;11557;50.884;4.322;2022-11-20T01:10:33;48.80;;;33.47;;
22780;SDS011;11557;50.884;4.322;2022-11-20T01:12:59;53.72;;;33.80;;
22780;SDS011;11557;50.884;4.322;2022-11-20T01:15:43;52.63;;;33.95;;
22780;SDS011;11557;50.884;4.322;2022-11-20T01:18:09;56.60;;;35.22;;
22780;SDS011;11557;50.884;4.322;2022-11-20T01:20:35;50.25;;;34.70;;
22780;SDS011;11557;50.884;4.322;2022-11-20T01:23:01;53.60;;;35.45;;
22780;SDS011;11557;50.884;4.322;2022-11-20T01:25:30;56.55;;;33.92;;
22780;SDS011;11557;50.884;4.322;2022-11-20T01:27:55;60.78;;;35.05;;
22780;SDS011;11557;50.884;4.322;2022-11-20T01:30:21;54.33;;;34.40;;
22780;SDS011;11557;50.884;4.322;2022-11-20T01:32:47;58.63;;;34.88;;
22780;SDS011;11557;50.884;4.322;2022-11-20T01:35:12;57.88;;;35.55;;
22780;SDS011;11557;50.884;4.322;2022-11-20T01:37:38;52.60;;;33.90;;
22780;SDS011;11557;50.884;4.322;2022-11-20T01:40:04;61.17;;;34.40;;
22780;SDS011;11557;50.884;4.322;2022-11-20T01:42:30;54.55;;;33.58;;
22780;SDS011;11557;50.884;4.322;2022-11-20T01:48:14;52.45;;;36.30;;
22780;SDS011;11557;50.884;4.322;2022-11-20T01:50:40;56.42;;;35.22;;
22780;SDS011;11557;50.884;4.322;2022-11-20T01:53:08;49.90;;;36.20;;
22780;SDS011;11557;50.884;4.322;2022-11-20T01:55:41;53.25;;;35.40;;
22780;SDS011;11557;50.884;4.322;2022-11-20T01:58:12;51.80;;;35.87;;
22780;SDS011;11557;50.884;4.322;2022-11-20T02:00:38;61.63;;;35.03;;
22780;SDS011;11557;50.884;4.322;2022-11-20T02:03:06;58.83;;;36.60;;
22780;SDS011;11557;50.884;4.322;2022-11-20T02:08:48;58.75;;;36.80;;
22780;SDS011;11557;50.884;4.322;2022-11-20T02:11:13;54.42;;;37.38;;
22780;SDS011;11557;50.884;4.322;2022-11-20T02:13:39;62.33;;;38.95;;
22780;SDS011;11557;50.884;4.322;2022-11-20T02:18:48;56.88;;;37.80;;
22780;SDS011;11557;50.884;4.322;2022-11-20T02:21:18;58.80;;;37.72;;
22780;SDS011;11557;50.884;4.322;2022-11-20T02:24:00;62.65;;;38.38;;
22780;SDS011;11557;50.884;4.322;2022-11-20T02:26:32;56.13;;;36.00;;
22780;SDS011;11557;50.884;4.322;2022-11-20T02:29:02;61.83;;;38.10;;
22780;SDS011;11557;50.884;4.322;2022-11-20T02:31:29;56.60;;;37.13;;
22780;SDS011;11557;50.884;4.322;2022-11-20T02:33:58;60.72;;;37.72;;
22780;SDS011;11557;50.884;4.322;2022-11-20T02:36:26;67.88;;;39.65;;
22780;SDS011;11557;50.884;4.322;2022-11-20T02:38:53;64.15;;;38.97;;
22780;SDS011;11557;50.884;4.322;2022-11-20T02:41:18;63.58;;;40.22;;
22780;SDS011;11557;50.884;4.322;2022-11-20T02:43:44;59.60;;;38.13;;
22780;SDS011;11557;50.884;4.322;2022-11-20T02:46:10;61.00;;;37.08;;
22780;SDS011;11557;50.884;4.322;2022-11-20T02:48:35;66.63;;;37.95;;
22780;SDS011;11557;50.884;4.322;2022-11-20T02:51:01;59.35;;;39.33;;
22780;SDS011;11557;50.884;4.322;2022-11-20T02:53:27;62.35;;;37.30;;
22780;SDS011;11557;50.884;4.322;2022-11-20T02:55:53;62.97;;;37.78;;
22780;SDS011;11557;50.884;4.322;2022-11-20T02:58:18;62.03;;;37.20;;
22780;SDS011;11557;50.884;4.322;2022-11-20T03:00:44;63.95;;;37.05;;
22780;SDS011;11557;50.884;4.322;2022-11-20T03:03:10;61.53;;;37.35;;
22780;SDS011;11557;50.884;4.322;2022-11-20T03:05:35;62.78;;;35.42;;
22780;SDS011;11557;50.884;4.322;2022-11-20T03:08:01;61.30;;;37.22;;
22780;SDS011;11557;50.884;4.322;2022-11-20T03:10:26;65.40;;;36.53;;
22780;SDS011;11557;50.884;4.322;2022-11-20T03:12:53;61.90;;;36.22;;
22780;SDS011;11557;50.884;4.322;2022-11-20T03:15:20;65.93;;;37.75;;
22780;SDS011;11557;50.884;4.322;2022-11-20T03:17:49;64.10;;;37.28;;
22780;SDS011;11557;50.884;4.322;2022-11-20T03:20:17;66.85;;;38.88;;
22780;SDS011;11557;50.884;4.322;2022-11-20T03:22:43;71.70;;;39.13;;
22780;SDS011;11557;50.884;4.322;2022-11-20T03:25:08;59.47;;;37.00;;
22780;SDS011;11557;50.884;4.322;2022-11-20T03:27:34;63.53;;;35.97;;
22780;SDS011;11557;50.884;4.322;2022-11-20T03:30:00;57.55;;;35.65;;
22780;SDS011;11557;50.884;4.322;2022-11-20T03:32:26;63.97;;;36.63;;
22780;SDS011;11557;50.884;4.322;2022-11-20T03:34:51;64.45;;;36.25;;
22780;SDS011;11557;50.884;4.322;2022-11-20T03:37:17;60.33;;;35.10;;
22780;SDS011;11557;50.884;4.322;2022-11-20T03:39:42;59.72;;;35.65;;
22780;SDS011;11557;50.884;4.322;2022-11-20T03:42:08;61.05;;;36.50;;
22780;SDS011;11557;50.884;4.322;2022-11-20T03:44:54;62.22;;;35.13;;
22780;SDS011;11557;50.884;4.322;2022-11-20T03:47:20;60.78;;;35.67;;
22780;SDS011;11557;50.884;4.322;2022-11-20T03:49:45;64.68;;;35.97;;
22780;SDS011;11557;50.884;4.322;2022-11-20T03:52:11;61.50;;;36.33;;
22780;SDS011;11557;50.884;4.322;2022-11-20T03:54:36;61.03;;;35.75;;
22780;SDS011;11557;50.884;4.322;2022-11-20T03:57:02;59.13;;;35.65;;
22780;SDS011;11557;50.884;4.322;2022-11-20T03:59:27;55.70;;;34.67;;
22780;SDS011;11557;50.884;4.322;2022-11-20T04:01:53;58.85;;;34.67;;
22780;SDS011;11557;50.884;4.322;2022-11-20T04:04:18;58.13;;;34.25;;
22780;SDS011;11557;50.884;4.322;2022-11-20T04:06:44;52.20;;;32.65;;
22780;SDS011;11557;50.884;4.322;2022-11-20T04:09:10;54.25;;;33.38;;
22780;SDS011;11557;50.884;4.322;2022-11-20T04:11:36;55.17;;;33.55;;
22780;SDS011;11557;50.884;4.322;2022-11-20T04:14:05;57.78;;;34.92;;
22780;SDS011;11557;50.884;4.322;2022-11-20T04:16:36;56.30;;;33.35;;
22780;SDS011;11557;50.884;4.322;2022-11-20T04:19:04;55.60;;;34.78;;
22780;SDS011;11557;50.884;4.322;2022-11-20T04:21:31;55.35;;;32.92;;
22780;SDS011;11557;50.884;4.322;2022-11-20T04:23:57;60.88;;;33.22;;
22780;SDS011;11557;50.884;4.322;2022-11-20T04:26:24;55.42;;;33.65;;
22780;SDS011;11557;50.884;4.322;2022-11-20T04:28:51;54.22;;;33.60;;
22780;SDS011;11557;50.884;4.322;2022-11-20T04:31:18;59.65;;;33.88;;
22780;SDS011;11557;50.884;4.322;2022-11-20T04:33:46;60.25;;;34.45;;
22780;SDS011;11557;50.884;4.322;2022-11-20T04:36:16;63.65;;;35.92;;
22780;SDS011;11557;50.884;4.322;2022-11-20T04:38:45;58.30;;;34.80;;
22780;SDS011;11557;50.884;4.322;2022-11-20T04:41:16;58.63;;;34.72;;
22780;SDS011;11557;50.884;4.322;2022-11-20T04:43:47;63.08;;;35.10;;
22780;SDS011;11557;50.884;4.322;2022-11-20T04:46:14;65.10;;;35.63;;
22780;SDS011;11557;50.884;4.322;2022-11-20T04:48:40;66.25;;;36.05;;
22780;SDS011;11557;50.884;4.322;2022-11-20T04:51:06;63.60;;;35.58;;
22780;SDS011;11557;50.884;4.322;2022-11-20T04:53:31;65.15;;;35.30;;
22780;SDS011;11557;50.884;4.322;2022-11-20T04:56:01;62.88;;;34.20;;
22780;SDS011;11557;50.884;4.322;2022-11-20T04:58:29;64.35;;;36.08;;
22780;SDS011;11557;50.884;4.322;2022-11-20T05:03:50;67.72;;;36.65;;
22780;SDS011;11557;50.884;4.322;2022-11-20T05:06:17;68.75;;;35.63;;
22780;SDS011;11557;50.884;4.322;2022-11-20T05:08:44;72.63;;;35.78;;
22780;SDS011;11557;50.884;4.322;2022-11-20T05:11:10;71.03;;;38.90;;
22780;SDS011;11557;50.884;4.322;2022-11-20T05:13:40;73.30;;;37.47;;
22780;SDS011;11557;50.884;4.322;2022-11-20T05:16:10;79.30;;;36.80;;
22780;SDS011;11557;50.884;4.322;2022-11-20T05:18:40;70.68;;;37.38;;
22780;SDS011;11557;50.884;4.322;2022-11-20T05:21:07;74.90;;;38.15;;
22780;SDS011;11557;50.884;4.322;2022-11-20T05:23:33;74.30;;;37.47;;
22780;SDS011;11557;50.884;4.322;2022-11-20T05:26:00;77.10;;;36.90;;
22780;SDS011;11557;50.884;4.322;2022-11-20T05:28:27;75.25;;;37.70;;
22780;SDS011;11557;50.884;4.322;2022-11-20T05:30:53;70.72;;;36.42;;
22780;SDS011;11557;50.884;4.322;2022-11-20T05:33:19;67.78;;;37.42;;
22780;SDS011;11557;50.884;4.322;2022-11-20T05:35:45;75.43;;;38.42;;
22780;SDS011;11557;50.884;4.322;2022-11-20T05:38:11;77.32;;;38.00;;
22780;SDS011;11557;50.884;4.322;2022-11-20T05:40:36;72.88;;;38.03;;
22780;SDS011;11557;50.884;4.322;2022-11-20T05:43:02;73.93;;;36.40;;
22780;SDS011;11557;50.884;4.322;2022-11-20T05:45:28;72.82;;;39.03;;
22780;SDS011;11557;50.884;4.322;2022-11-20T05:47:57;78.50;;;38.85;;
22780;SDS011;11557;50.884;4.322;2022-11-20T05:50:24;78.72;;;38.47;;
22780;SDS011;11557;50.884;4.322;2022-11-20T05:52:49;80.10;;;39.92;;
22780;SDS011;11557;50.884;4.322;2022-11-20T05:55:15;80.25;;;39.85;;
22780;SDS011;11557;50.884;4.322;2022-11-20T05:57:40;82.25;;;40.13;;
22780;SDS011;11557;50.884;4.322;2022-11-20T06:00:06;81.65;;;39.83;;
22780;SDS011;11557;50.884;4.322;2022-11-20T06:02:34;78.90;;;39.28;;
22780;SDS011;11557;50.884;4.322;2022-11-20T06:05:00;75.25;;;38.40;;
22780;SDS011;11557;50.884;4.322;2022-11-20T06:07:26;74.82;;;38.95;;
22780;SDS011;11557;50.884;4.322;2022-11-20T06:09:52;77.00;;;38.08;;
22780;SDS011;11557;50.884;4.322;2022-11-20T06:12:17;78.07;;;38.92;;
22780;SDS011;11557;50.884;4.322;2022-11-20T06:14:43;91.38;;;40.67;;
22780;SDS011;11557;50.884;4.322;2022-11-20T06:17:08;87.25;;;39.92;;
22780;SDS011;11557;50.884;4.322;2022-11-20T06:19:34;84.80;;;38.75;;
22780;SDS011;11557;50.884;4.322;2022-11-20T06:21:59;92.55;;;39.22;;
22780;SDS011;11557;50.884;4.322;2022-11-20T06:24:26;87.68;;;40.67;;
22780;SDS011;11557;50.884;4.322;2022-11-20T06:26:52;84.75;;;40.10;;
22780;SDS011;11557;50.884;4.322;2022-11-20T06:29:17;83.13;;;37.85;;
22780;SDS011;11557;50.884;4.322;2022-11-20T06:31:43;92.97;;;41.47;;
22780;SDS011;11557;50.884;4.322;2022-11-20T06:34:08;96.32;;;41.13;;
22780;SDS011;11557;50.884;4.322;2022-11-20T06:36:34;96.00;;;41.75;;
22780;SDS011;11557;50.884;4.322;2022-11-20T06:39:00;98.03;;;40.55;;
22780;SDS011;11557;50.884;4.322;2022-11-20T06:41:26;97.30;;;41.42;;
22780;SDS011;11557;50.884;4.322;2022-11-20T06:43:53;96.72;;;41.97;;
22780;SDS011;11557;50.884;4.322;2022-11-20T06:46:19;94.97;;;40.63;;
22780;SDS011;11557;50.884;4.322;2022-11-20T06:48:46;94.75;;;41.65;;
22780;SDS011;11557;50.884;4.322;2022-11-20T06:51:12;98.65;;;41.28;;
22780;SDS011;11557;50.884;4.322;2022-11-20T06:53:38;93.10;;;40.65;;
22780;SDS011;11557;50.884;4.322;2022-11-20T06:56:04;92.65;;;41.03;;
22780;SDS011;11557;50.884;4.322;2022-11-20T06:58:30;84.95;;;39.45;;
22780;SDS011;11557;50.884;4.322;2022-11-20T07:01:00;87.85;;;38.85;;
22780;SDS011;11557;50.884;4.322;2022-11-20T07:03:31;87.55;;;39.13;;
22780;SDS011;11557;50.884;4.322;2022-11-20T07:05:57;89.88;;;39.85;;
22780;SDS011;11557;50.884;4.322;2022-11-20T07:08:24;86.25;;;40.28;;
22780;SDS011;11557;50.884;4.322;2022-11-20T07:10:49;86.05;;;39.80;;
22780;SDS011;11557;50.884;4.322;2022-11-20T07:13:15;86.97;;;40.88;;
22780;SDS011;11557;50.884;4.322;2022-11-20T07:15:41;87.55;;;39.47;;
22780;SDS011;11557;50.884;4.322;2022-11-20T07:18:06;82.10;;;38.97;;
22780;SDS011;11557;50.884;4.322;2022-11-20T07:20:32;90.75;;;40.42;;
22780;SDS011;11557;50.884;4.322;2022-11-20T07:22:58;82.85;;;39.03;;
22780;SDS011;11557;50.884;4.322;2022-11-20T07:25:24;85.78;;;40.03;;
22780;SDS011;11557;50.884;4.322;2022-11-20T07:27:50;82.30;;;39.17;;
22780;SDS011;11557;50.884;4.322;2022-11-20T07:30:16;78.68;;;36.00;;
22780;SDS011;11557;50.884;4.322;2022-11-20T07:32:45;80.18;;;38.55;;
22780;SDS011;11557;50.884;4.322;2022-11-20T07:35:12;78.47;;;37.80;;
22780;SDS011;11557;50.884;4.322;2022-11-20T07:37:38;77.95;;;38.95;;
22780;SDS011;11557;50.884;4.322;2022-11-20T07:40:03;82.68;;;38.75;;
22780;SDS011;11557;50.884;4.322;2022-11-20T07:42:29;77.57;;;38.30;;
22780;SDS011;11557;50.884;4.322;2022-11-20T07:44:55;82.38;;;38.22;;
22780;SDS011;11557;50.884;4.322;2022-11-20T07:47:21;77.38;;;36.90;;
22780;SDS011;11557;50.884;4.322;2022-11-20T07:49:46;72.03;;;36.03;;
22780;SDS011;11557;50.884;4.322;2022-11-20T07:52:12;75.25;;;35.75;;
22780;SDS011;11557;50.884;4.322;2022-11-20T07:54:38;79.43;;;37.53;;
22780;SDS011;11557;50.884;4.322;2022-11-20T07:57:04;74.00;;;34.53;;
22780;SDS011;11557;50.884;4.322;2022-11-20T07:59:30;77.15;;;35.88;;
22780;SDS011;11557;50.884;4.322;2022-11-20T08:01:55;78.03;;;35.88;;
22780;SDS011;11557;50.884;4.322;2022-11-20T08:04:22;76.38;;;35.47;;
22780;SDS011;11557;50.884;4.322;2022-11-20T08:06:48;78.13;;;36.38;;
22780;SDS011;11557;50.884;4.322;2022-11-20T08:09:14;78.60;;;35.28;;
22780;SDS011;11557;50.884;4.322;2022-11-20T08:11:40;78.07;;;35.03;;
22780;SDS011;11557;50.884;4.322;2022-11-20T08:16:54;78.63;;;33.60;;
22780;SDS011;11557;50.884;4.322;2022-11-20T08:19:20;83.65;;;34.28;;
22780;SDS011;11557;50.884;4.322;2022-11-20T08:21:45;91.72;;;36.13;;
22780;SDS011;11557;50.884;4.322;2022-11-20T08:24:17;76.80;;;33.97;;
22780;SDS011;11557;50.884;4.322;2022-11-20T08:26:43;77.13;;;34.33;;
22780;SDS011;11557;50.884;4.322;2022-11-20T08:29:08;77.57;;;35.15;;
22780;SDS011;11557;50.884;4.322;2022-11-20T08:31:34;84.90;;;35.35;;
22780;SDS011;11557;50.884;4.322;2022-11-20T08:34:00;79.07;;;33.33;;
22780;SDS011;11557;50.884;4.322;2022-11-20T08:36:26;73.82;;;33.85;;
22780;SDS011;11557;50.884;4.322;2022-11-20T08:38:59;74.82;;;33.00;;
22780;SDS011;11557;50.884;4.322;2022-11-20T08:41:24;80.82;;;33.65;;
22780;SDS011;11557;50.884;4.322;2022-11-20T08:43:53;71.88;;;33.00;;
22780;SDS011;11557;50.884;4.322;2022-11-20T08:46:26;78.65;;;33.90;;
22780;SDS011;11557;50.884;4.322;2022-11-20T08:48:55;76.57;;;34.63;;
22780;SDS011;11557;50.884;4.322;2022-11-20T08:51:24;80.90;;;33.05;;
22780;SDS011;11557;50.884;4.322;2022-11-20T08:53:51;79.22;;;33.75;;
22780;SDS011;11557;50.884;4.322;2022-11-20T08:56:16;72.65;;;33.35;;
22780;SDS011;11557;50.884;4.322;2022-11-20T08:58:43;83.22;;;34.78;;
22780;SDS011;11557;50.884;4.322;2022-11-20T09:01:08;86.00;;;36.92;;
22780;SDS011;11557;50.884;4.322;2022-11-20T09:03:35;80.68;;;38.60;;
22780;SDS011;11557;50.884;4.322;2022-11-20T09:06:03;89.43;;;36.92;;
22780;SDS011;11557;50.884;4.322;2022-11-20T09:08:30;80.25;;;34.63;;
22780;SDS011;11557;50.884;4.322;2022-11-20T09:10:58;81.10;;;37.88;;
22780;SDS011;11557;50.884;4.322;2022-11-20T09:13:25;84.28;;;37.15;;
22780;SDS011;11557;50.884;4.322;2022-11-20T09:15:53;76.55;;;33.13;;
22780;SDS011;11557;50.884;4.322;2022-11-20T09:18:24;66.63;;;33.08;;
22780;SDS011;11557;50.884;4.322;2022-11-20T09:20:50;73.22;;;33.05;;
22780;SDS011;11557;50.884;4.322;2022-11-20T09:23:16;67.75;;;33.42;;
22780;SDS011;11557;50.884;4.322;2022-11-20T09:25:42;79.07;;;35.65;;
22780;SDS011;11557;50.884;4.322;2022-11-20T09:28:07;76.60;;;35.33;;
22780;SDS011;11557;50.884;4.322;2022-11-20T09:30:33;72.50;;;34.63;;
22780;SDS011;11557;50.884;4.322;2022-11-20T09:32:59;71.40;;;35.30;;
22780;SDS011;11557;50.884;4.322;2022-11-20T09:35:25;62.58;;;32.03;;
22780;SDS011;11557;50.884;4.322;2022-11-20T09:37:51;65.82;;;32.97;;
22780;SDS011;11557;50.884;4.322;2022-11-20T09:40:20;62.30;;;32.42;;
22780;SDS011;11557;50.884;4.322;2022-11-20T09:43:13;65.38;;;29.98;;
22780;SDS011;11557;50.884;4.322;2022-11-20T09:56:45;54.28;;;29.52;;
22780;SDS011;11557;50.884;4.322;2022-11-20T09:59:26;52.63;;;27.80;;
22780;SDS011;11557;50.884;4.322;2022-11-20T10:01:56;51.53;;;26.55;;
22780;SDS011;11557;50.884;4.322;2022-11-20T10:04:24;49.72;;;26.90;;
22780;SDS011;11557;50.884;4.322;2022-11-20T10:07:00;48.67;;;26.60;;
22780;SDS011;11557;50.884;4.322;2022-11-20T10:09:40;47.85;;;25.23;;
22780;SDS011;11557;50.884;4.322;2022-11-20T10:24:02;45.35;;;24.08;;
22780;SDS011;11557;50.884;4.322;2022-11-20T10:29:29;34.53;;;20.23;;
22780;SDS011;11557;50.884;4.322;2022-11-20T10:32:07;35.20;;;20.42;;
22780;SDS011;11557;50.884;4.322;2022-11-20T10:34:58;34.85;;;20.58;;
22780;SDS011;11557;50.884;4.322;2022-11-20T10:37:47;31.70;;;17.45;;
22780;SDS011;11557;50.884;4.322;2022-11-20T10:40:34;28.80;;;15.38;;
22780;SDS011;11557;50.884;4.322;2022-11-20T10:43:16;20.77;;;12.20;;
22780;SDS011;11557;50.884;4.322;2022-11-20T10:46:03;19.30;;;11.45;;
22780;SDS011;11557;50.884;4.322;2022-11-20T10:48:34;21.75;;;11.75;;
22780;SDS011;11557;50.884;4.322;2022-11-20T10:56:42;16.85;;;10.65;;
22780;SDS011;11557;50.884;4.322;2022-11-20T11:02:16;17.42;;;8.52;;
22780;SDS011;11557;50.884;4.322;2022-11-20T11:04:47;17.83;;;8.38;;
22780;SDS011;11557;50.884;4.322;2022-11-20T11:07:16;15.65;;;7.40;;
22780;SDS011;11557;50.884;4.322;2022-11-20T11:09:54;20.55;;;7.85;;
22780;SDS011;11557;50.884;4.322;2022-11-20T11:12:21;16.25;;;7.50;;
22780;SDS011;11557;50.884;4.322;2022-11-20T11:14:53;16.20;;;7.25;;
22780;SDS011;11557;50.884;4.322;2022-11-20T11:17:29;15.07;;;6.95;;
22780;SDS011;11557;50.884;4.322;2022-11-20T11:20:16;11.80;;;7.35;;
22780;SDS011;11557;50.884;4.322;2022-11-20T11:22:47;16.70;;;7.60;;
22780;SDS011;11557;50.884;4.322;2022-11-20T11:25:25;13.45;;;7.05;;
22780;SDS011;11557;50.884;4.322;2022-11-20T11:27:53;14.45;;;7.60;;
22780;SDS011;11557;50.884;4.322;2022-11-20T11:30:22;16.95;;;8.77;;
22780;SDS011;11557;50.884;4.322;2022-11-20T11:32:49;17.13;;;7.07;;
22780;SDS011;11557;50.884;4.322;2022-11-20T11:35:19;16.17;;;6.68;;
22780;SDS011;11557;50.884;4.322;2022-11-20T11:37:53;19.35;;;7.35;;
22780;SDS011;11557;50.884;4.322;2022-11-20T11:42:59;15.13;;;6.93;;
22780;SDS011;11557;50.884;4.322;2022-11-20T11:45:27;16.02;;;7.68;;
22780;SDS011;11557;50.884;4.322;2022-11-20T11:47:54;17.95;;;6.85;;
22780;SDS011;11557;50.884;4.322;2022-11-20T11:50:23;21.00;;;9.98;;
22780;SDS011;11557;50.884;4.322;2022-11-20T11:53:12;16.75;;;8.88;;
22780;SDS011;11557;50.884;4.322;2022-11-20T12:01:24;13.68;;;7.00;;
22780;SDS011;11557;50.884;4.322;2022-11-20T12:03:55;15.45;;;5.68;;
22780;SDS011;11557;50.884;4.322;2022-11-20T12:06:44;11.95;;;5.93;;
22780;SDS011;11557;50.884;4.322;2022-11-20T12:09:15;14.45;;;6.00;;
22780;SDS011;11557;50.884;4.322;2022-11-20T12:11:54;14.43;;;6.47;;
22780;SDS011;11557;50.884;4.322;2022-11-20T12:17:04;13.90;;;6.13;;
22780;SDS011;11557;50.884;4.322;2022-11-20T12:19:33;14.75;;;7.13;;
22780;SDS011;11557;50.884;4.322;2022-11-20T12:22:26;12.30;;;6.30;;
22780;SDS011;11557;50.884;4.322;2022-11-20T12:41:35;11.40;;;6.20;;
22780;SDS011;11557;50.884;4.322;2022-11-20T12:47:39;11.15;;;5.53;;
22780;SDS011;11557;50.884;4.322;2022-11-20T12:56:08;15.55;;;6.88;;
22780;SDS011;11557;50.884;4.322;2022-11-20T13:04:32;12.00;;;6.88;;
22780;SDS011;11557;50.884;4.322;2022-11-20T13:07:00;13.13;;;7.18;;
22780;SDS011;11557;50.884;4.322;2022-11-20T13:09:43;13.80;;;7.80;;
22780;SDS011;11557;50.884;4.322;2022-11-20T13:12:15;13.98;;;7.05;;
22780;SDS011;11557;50.884;4.322;2022-11-20T13:14:57;12.80;;;8.35;;
22780;SDS011;11557;50.884;4.322;2022-11-20T13:17:46;11.48;;;5.82;;
22780;SDS011;11557;50.884;4.322;2022-11-20T13:20:19;11.63;;;6.20;;
22780;SDS011;11557;50.884;4.322;2022-11-20T13:22:46;15.65;;;5.75;;
22780;SDS011;11557;50.884;4.322;2022-11-20T13:25:25;9.80;;;5.03;;
22780;SDS011;11557;50.884;4.322;2022-11-20T13:27:54;9.32;;;5.65;;
22780;SDS011;11557;50.884;4.322;2022-11-20T13:30:29;9.82;;;5.80;;
22780;SDS011;11557;50.884;4.322;2022-11-20T13:35:35;13.55;;;8.65;;
22780;SDS011;11557;50.884;4.322;2022-11-20T13:38:08;47.28;;;29.50;;
22780;SDS011;11557;50.884;4.322;2022-11-20T13:40:37;42.15;;;27.65;;
22780;SDS011;11557;50.884;4.322;2022-11-20T13:46:01;23.20;;;15.02;;
22780;SDS011;11557;50.884;4.322;2022-11-20T13:48:31;8.48;;;7.47;;
22780;SDS011;11557;50.884;4.322;2022-11-20T13:54:05;14.25;;;10.07;;
22780;SDS011;11557;50.884;4.322;2022-11-20T13:57:30;27.88;;;20.80;;
22780;SDS011;11557;50.884;4.322;2022-11-20T14:00:12;23.20;;;16.85;;
22780;SDS011;11557;50.884;4.322;2022-11-20T14:02:43;29.42;;;17.95;;
22780;SDS011;11557;50.884;4.322;2022-11-20T14:05:19;21.70;;;12.55;;
22780;SDS011;11557;50.884;4.322;2022-11-20T14:07:50;44.78;;;28.42;;
22780;SDS011;11557;50.884;4.322;2022-11-20T14:10:26;59.20;;;42.25;;
22780;SDS011;11557;50.884;4.322;2022-11-20T14:12:56;51.08;;;35.55;;
22780;SDS011;11557;50.884;4.322;2022-11-20T14:15:29;54.92;;;38.53;;
22780;SDS011;11557;50.884;4.322;2022-11-20T14:17:57;25.92;;;18.50;;
22780;SDS011;11557;50.884;4.322;2022-11-20T14:20:26;20.58;;;14.77;;
22780;SDS011;11557;50.884;4.322;2022-11-20T14:22:55;30.23;;;21.08;;
22780;SDS011;11557;50.884;4.322;2022-11-20T14:25:24;17.52;;;10.75;;
22780;SDS011;11557;50.884;4.322;2022-11-20T14:27:57;26.20;;;15.65;;
22780;SDS011;11557;50.884;4.322;2022-11-20T14:30:26;18.52;;;12.52;;
22780;SDS011;11557;50.884;4.322;2022-11-20T14:32:59;15.65;;;8.63;;
22780;SDS011;11557;50.884;4.322;2022-11-20T14:37:56;6.78;;;4.55;;
22780;SDS011;11557;50.884;4.322;2022-11-20T14:40:27;7.57;;;4.65;;
22780;SDS011;11557;50.884;4.322;2022-11-20T14:42:58;7.75;;;5.15;;
22780;SDS011;11557;50.884;4.322;2022-11-20T14:45:24;6.43;;;4.85;;
22780;SDS011;11557;50.884;4.322;2022-11-20T14:47:54;6.15;;;4.82;;
22780;SDS011;11557;50.884;4.322;2022-11-20T14:50:25;8.10;;;5.18;;
22780;SDS011;11557;50.884;4.322;2022-11-20T14:52:55;7.72;;;5.00;;
22780;SDS011;11557;50.884;4.322;2022-11-20T14:55:32;7.82;;;5.72;;
22780;SDS011;11557;50.884;4.322;2022-11-20T14:58:19;7.50;;;5.50;;
22780;SDS011;11557;50.884;4.322;2022-11-20T15:00:57;6.57;;;4.55;;
22780;SDS011;11557;50.884;4.322;2022-11-20T15:03:33;7.15;;;4.25;;
22780;SDS011;11557;50.884;4.322;2022-11-20T15:06:01;7.57;;;4.35;;
22780;SDS011;11557;50.884;4.322;2022-11-20T15:08:27;8.20;;;4.43;;
22780;SDS011;11557;50.884;4.322;2022-11-20T15:10:54;6.70;;;4.82;;
22780;SDS011;11557;50.884;4.322;2022-11-20T15:13:29;7.63;;;4.60;;
22780;SDS011;11557;50.884;4.322;2022-11-20T15:16:01;8.32;;;4.45;;
22780;SDS011;11557;50.884;4.322;2022-11-20T15:18:46;8.88;;;5.07;;
22780;SDS011;11557;50.884;4.322;2022-11-20T15:21:15;6.13;;;4.93;;
22780;SDS011;11557;50.884;4.322;2022-11-20T15:23:42;5.78;;;4.72;;
22780;SDS011;11557;50.884;4.322;2022-11-20T15:26:09;8.45;;;4.85;;
22780;SDS011;11557;50.884;4.322;2022-11-20T15:28:40;9.10;;;5.00;;
22780;SDS011;11557;50.884;4.322;2022-11-20T15:31:11;12.05;;;5.88;;
22780;SDS011;11557;50.884;4.322;2022-11-20T15:33:37;14.15;;;5.35;;
22780;SDS011;11557;50.884;4.322;2022-11-20T15:36:03;12.50;;;5.40;;
22780;SDS011;11557;50.884;4.322;2022-11-20T15:38:29;11.40;;;5.57;;
22780;SDS011;11557;50.884;4.322;2022-11-20T15:40:55;13.40;;;5.75;;
22780;SDS011;11557;50.884;4.322;2022-11-20T15:43:21;10.70;;;5.55;;
22780;SDS011;11557;50.884;4.322;2022-11-20T15:45:52;9.00;;;5.80;;
22780;SDS011;11557;50.884;4.322;2022-11-20T15:53:48;10.40;;;5.32;;
22780;SDS011;11557;50.884;4.322;2022-11-20T15:56:14;12.68;;;5.20;;
22780;SDS011;11557;50.884;4.322;2022-11-20T15:58:40;11.60;;;4.97;;
22780;SDS011;11557;50.884;4.322;2022-11-20T16:01:09;15.38;;;5.38;;
22780;SDS011;11557;50.884;4.322;2022-11-20T16:03:36;13.43;;;5.35;;
22780;SDS011;11557;50.884;4.322;2022-11-20T16:06:02;15.77;;;5.50;;
22780;SDS011;11557;50.884;4.322;2022-11-20T16:08:28;12.45;;;4.68;;
22780;SDS011;11557;50.884;4.322;2022-11-20T16:10:53;13.63;;;4.70;;
22780;SDS011;11557;50.884;4.322;2022-11-20T16:13:19;14.52;;;4.57;;
22780;SDS011;11557;50.884;4.322;2022-11-20T16:16:11;12.63;;;4.30;;
22780;SDS011;11557;50.884;4.322;2022-11-20T16:18:46;22.42;;;5.22;;
22780;SDS011;11557;50.884;4.322;2022-11-20T16:21:12;17.58;;;4.97;;
22780;SDS011;11557;50.884;4.322;2022-11-20T16:23:41;18.08;;;4.55;;
22780;SDS011;11557;50.884;4.322;2022-11-20T16:26:11;19.35;;;5.07;;